sensor_id;sensor_type;location;lat;lon;timestamp;P1;durP1;ratioP1;P2;durP2;ratioP2
24897;SDS011;12957;49.434;8.684;2024-03-17T00:01:13;4.25;;;2.22;;
24897;SDS011;12957;49.434;8.684;2024-03-17T00:03:39;2.47;;;2.25;;
24897;SDS011;12957;49.434;8.684;2024-03-17T00:06:04;3.63;;;2.50;;
24897;SDS011;12957;49.434;8.684;2024-03-17T00:08:30;4.78;;;2.20;;
24897;SDS011;12957;49.434;8.684;2024-03-17T00:10:55;3.38;;;2.15;;
24897;SDS011;12957;49.434;8.684;2024-03-17T00:13:21;4.07;;;2.70;;
24897;SDS011;12957;49.434;8.684;2024-03-17T00:15:49;3.92;;;2.47;;
24897;SDS011;12957;49.434;8.684;2024-03-17T00:18:15;3.40;;;2.55;;
24897;SDS011;12957;49.434;8.684;2024-03-17T00:20:41;3.33;;;2.72;;
24897;SDS011;12957;49.434;8.684;2024-03-17T00:23:06;6.85;;;3.67;;
24897;SDS011;12957;49.434;8.684;2024-03-17T00:25:33;4.35;;;3.30;;
24897;SDS011;12957;49.434;8.684;2024-03-17T00:27:59;5.47;;;3.50;;
24897;SDS011;12957;49.434;8.684;2024-03-17T00:30:25;2.40;;;2.20;;
24897;SDS011;12957;49.434;8.684;2024-03-17T00:32:51;2.65;;;2.10;;
24897;SDS011;12957;49.434;8.684;2024-03-17T00:35:16;2.53;;;2.00;;
24897;SDS011;12957;49.434;8.684;2024-03-17T00:37:46;1.92;;;1.83;;
24897;SDS011;12957;49.434;8.684;2024-03-17T00:40:12;3.00;;;2.05;;
24897;SDS011;12957;49.434;8.684;2024-03-17T00:42:38;2.38;;;1.85;;
24897;SDS011;12957;49.434;8.684;2024-03-17T00:45:03;2.28;;;1.60;;
24897;SDS011;12957;49.434;8.684;2024-03-17T00:47:31;2.90;;;1.90;;
24897;SDS011;12957;49.434;8.684;2024-03-17T00:49:57;2.75;;;1.90;;
24897;SDS011;12957;49.434;8.684;2024-03-17T00:52:22;5.85;;;1.98;;
24897;SDS011;12957;49.434;8.684;2024-03-17T00:54:48;3.95;;;1.88;;
24897;SDS011;12957;49.434;8.684;2024-03-17T00:57:14;3.97;;;1.88;;
24897;SDS011;12957;49.434;8.684;2024-03-17T00:59:42;1.35;;;1.35;;
24897;SDS011;12957;49.434;8.684;2024-03-17T01:02:09;2.90;;;1.88;;
24897;SDS011;12957;49.434;8.684;2024-03-17T01:04:37;4.93;;;2.10;;
24897;SDS011;12957;49.434;8.684;2024-03-17T01:07:04;2.00;;;1.80;;
24897;SDS011;12957;49.434;8.684;2024-03-17T01:09:30;2.47;;;1.95;;
24897;SDS011;12957;49.434;8.684;2024-03-17T01:11:55;2.67;;;1.77;;
24897;SDS011;12957;49.434;8.684;2024-03-17T01:14:21;3.10;;;1.92;;
24897;SDS011;12957;49.434;8.684;2024-03-17T01:16:46;2.00;;;1.88;;
24897;SDS011;12957;49.434;8.684;2024-03-17T01:19:12;1.88;;;1.77;;
24897;SDS011;12957;49.434;8.684;2024-03-17T01:21:37;1.92;;;1.73;;
24897;SDS011;12957;49.434;8.684;2024-03-17T01:24:03;2.28;;;2.00;;
24897;SDS011;12957;49.434;8.684;2024-03-17T01:26:28;3.58;;;1.50;;
24897;SDS011;12957;49.434;8.684;2024-03-17T01:28:54;3.38;;;2.00;;
24897;SDS011;12957;49.434;8.684;2024-03-17T01:31:19;3.47;;;1.85;;
24897;SDS011;12957;49.434;8.684;2024-03-17T01:33:45;3.15;;;2.00;;
24897;SDS011;12957;49.434;8.684;2024-03-17T01:36:12;3.33;;;2.08;;
24897;SDS011;12957;49.434;8.684;2024-03-17T01:38:37;3.42;;;2.00;;
24897;SDS011;12957;49.434;8.684;2024-03-17T01:41:03;4.63;;;2.10;;
24897;SDS011;12957;49.434;8.684;2024-03-17T01:43:29;1.98;;;1.67;;
24897;SDS011;12957;49.434;8.684;2024-03-17T01:45:55;2.00;;;1.90;;
24897;SDS011;12957;49.434;8.684;2024-03-17T01:48:22;1.90;;;1.73;;
24897;SDS011;12957;49.434;8.684;2024-03-17T01:50:48;2.05;;;1.77;;
24897;SDS011;12957;49.434;8.684;2024-03-17T01:53:14;2.55;;;1.90;;
24897;SDS011;12957;49.434;8.684;2024-03-17T01:55:42;4.10;;;1.70;;
24897;SDS011;12957;49.434;8.684;2024-03-17T01:58:08;3.25;;;1.65;;
24897;SDS011;12957;49.434;8.684;2024-03-17T02:00:37;1.90;;;1.50;;
24897;SDS011;12957;49.434;8.684;2024-03-17T02:03:06;1.60;;;1.50;;
24897;SDS011;12957;49.434;8.684;2024-03-17T02:05:33;3.83;;;1.70;;
24897;SDS011;12957;49.434;8.684;2024-03-17T02:07:59;4.93;;;1.70;;
24897;SDS011;12957;49.434;8.684;2024-03-17T02:10:25;2.40;;;1.50;;
24897;SDS011;12957;49.434;8.684;2024-03-17T02:12:51;1.55;;;1.40;;
24897;SDS011;12957;49.434;8.684;2024-03-17T02:15:17;3.33;;;1.80;;
24897;SDS011;12957;49.434;8.684;2024-03-17T02:17:42;3.17;;;2.20;;
24897;SDS011;12957;49.434;8.684;2024-03-17T02:20:08;2.58;;;1.83;;
24897;SDS011;12957;49.434;8.684;2024-03-17T02:22:36;1.90;;;1.80;;
24897;SDS011;12957;49.434;8.684;2024-03-17T02:25:02;3.90;;;1.80;;
24897;SDS011;12957;49.434;8.684;2024-03-17T02:27:28;2.00;;;1.70;;
24897;SDS011;12957;49.434;8.684;2024-03-17T02:29:54;2.15;;;1.92;;
24897;SDS011;12957;49.434;8.684;2024-03-17T02:32:19;2.17;;;2.03;;
24897;SDS011;12957;49.434;8.684;2024-03-17T02:34:47;4.22;;;2.10;;
24897;SDS011;12957;49.434;8.684;2024-03-17T02:37:12;4.85;;;2.55;;
24897;SDS011;12957;49.434;8.684;2024-03-17T02:39:38;4.05;;;2.22;;
24897;SDS011;12957;49.434;8.684;2024-03-17T02:42:04;2.75;;;2.00;;
24897;SDS011;12957;49.434;8.684;2024-03-17T02:44:31;2.92;;;2.03;;
24897;SDS011;12957;49.434;8.684;2024-03-17T02:46:57;3.50;;;2.20;;
24897;SDS011;12957;49.434;8.684;2024-03-17T02:49:24;3.90;;;2.17;;
24897;SDS011;12957;49.434;8.684;2024-03-17T02:51:50;2.13;;;1.90;;
24897;SDS011;12957;49.434;8.684;2024-03-17T02:54:15;3.73;;;1.83;;
24897;SDS011;12957;49.434;8.684;2024-03-17T02:56:41;2.00;;;1.90;;
24897;SDS011;12957;49.434;8.684;2024-03-17T02:59:07;2.90;;;1.98;;
24897;SDS011;12957;49.434;8.684;2024-03-17T03:01:32;3.33;;;1.90;;
24897;SDS011;12957;49.434;8.684;2024-03-17T03:03:58;2.73;;;1.90;;
24897;SDS011;12957;49.434;8.684;2024-03-17T03:06:23;3.45;;;1.80;;
24897;SDS011;12957;49.434;8.684;2024-03-17T03:08:50;2.17;;;1.77;;
24897;SDS011;12957;49.434;8.684;2024-03-17T03:11:16;3.17;;;1.77;;
24897;SDS011;12957;49.434;8.684;2024-03-17T03:13:42;2.00;;;1.80;;
24897;SDS011;12957;49.434;8.684;2024-03-17T03:16:12;3.95;;;1.88;;
24897;SDS011;12957;49.434;8.684;2024-03-17T03:18:39;4.38;;;2.00;;
24897;SDS011;12957;49.434;8.684;2024-03-17T03:21:05;2.20;;;1.70;;
24897;SDS011;12957;49.434;8.684;2024-03-17T03:23:31;3.00;;;1.40;;
24897;SDS011;12957;49.434;8.684;2024-03-17T03:26:00;2.42;;;1.50;;
24897;SDS011;12957;49.434;8.684;2024-03-17T03:28:31;1.52;;;1.42;;
24897;SDS011;12957;49.434;8.684;2024-03-17T03:30:57;1.60;;;1.50;;
24897;SDS011;12957;49.434;8.684;2024-03-17T03:33:23;1.65;;;1.33;;
24897;SDS011;12957;49.434;8.684;2024-03-17T03:35:48;5.50;;;2.88;;
24897;SDS011;12957;49.434;8.684;2024-03-17T03:38:15;5.13;;;2.83;;
24897;SDS011;12957;49.434;8.684;2024-03-17T03:40:41;3.00;;;2.70;;
24897;SDS011;12957;49.434;8.684;2024-03-17T03:43:07;5.45;;;3.10;;
24897;SDS011;12957;49.434;8.684;2024-03-17T03:45:36;5.68;;;3.25;;
24897;SDS011;12957;49.434;8.684;2024-03-17T03:48:02;4.07;;;3.38;;
24897;SDS011;12957;49.434;8.684;2024-03-17T03:50:29;3.60;;;3.00;;
24897;SDS011;12957;49.434;8.684;2024-03-17T03:52:54;4.55;;;3.33;;
24897;SDS011;12957;49.434;8.684;2024-03-17T03:55:20;5.00;;;3.50;;
24897;SDS011;12957;49.434;8.684;2024-03-17T03:57:45;6.28;;;3.17;;
24897;SDS011;12957;49.434;8.684;2024-03-17T04:00:12;4.22;;;3.42;;
24897;SDS011;12957;49.434;8.684;2024-03-17T04:02:39;5.60;;;3.30;;
24897;SDS011;12957;49.434;8.684;2024-03-17T04:05:05;5.47;;;3.40;;
24897;SDS011;12957;49.434;8.684;2024-03-17T04:07:30;3.50;;;3.20;;
24897;SDS011;12957;49.434;8.684;2024-03-17T04:09:56;6.65;;;3.60;;
24897;SDS011;12957;49.434;8.684;2024-03-17T04:12:22;4.40;;;3.10;;
24897;SDS011;12957;49.434;8.684;2024-03-17T04:14:49;3.78;;;3.10;;
24897;SDS011;12957;49.434;8.684;2024-03-17T04:17:18;4.37;;;3.37;;
24897;SDS011;12957;49.434;8.684;2024-03-17T04:19:47;4.63;;;3.10;;
24897;SDS011;12957;49.434;8.684;2024-03-17T04:22:13;3.80;;;3.42;;
24897;SDS011;12957;49.434;8.684;2024-03-17T04:24:39;3.95;;;3.47;;
24897;SDS011;12957;49.434;8.684;2024-03-17T04:27:05;4.00;;;3.22;;
24897;SDS011;12957;49.434;8.684;2024-03-17T04:29:30;3.60;;;3.30;;
24897;SDS011;12957;49.434;8.684;2024-03-17T04:31:56;5.03;;;3.50;;
24897;SDS011;12957;49.434;8.684;2024-03-17T04:34:21;6.32;;;3.70;;
24897;SDS011;12957;49.434;8.684;2024-03-17T04:36:47;4.72;;;3.63;;
24897;SDS011;12957;49.434;8.684;2024-03-17T04:39:12;3.85;;;3.55;;
24897;SDS011;12957;49.434;8.684;2024-03-17T04:41:38;4.03;;;3.60;;
24897;SDS011;12957;49.434;8.684;2024-03-17T04:44:06;8.80;;;4.00;;
24897;SDS011;12957;49.434;8.684;2024-03-17T04:46:31;7.13;;;3.80;;
24897;SDS011;12957;49.434;8.684;2024-03-17T04:48:57;5.28;;;3.47;;
24897;SDS011;12957;49.434;8.684;2024-03-17T04:51:23;5.30;;;3.70;;
24897;SDS011;12957;49.434;8.684;2024-03-17T04:53:48;3.93;;;3.63;;
24897;SDS011;12957;49.434;8.684;2024-03-17T04:56:14;4.03;;;3.63;;
24897;SDS011;12957;49.434;8.684;2024-03-17T04:58:39;3.33;;;3.03;;
24897;SDS011;12957;49.434;8.684;2024-03-17T05:01:05;4.00;;;3.43;;
24897;SDS011;12957;49.434;8.684;2024-03-17T05:03:31;3.50;;;3.20;;
24897;SDS011;12957;49.434;8.684;2024-03-17T05:06:00;4.70;;;3.47;;
24897;SDS011;12957;49.434;8.684;2024-03-17T05:08:29;3.97;;;3.10;;
24897;SDS011;12957;49.434;8.684;2024-03-17T05:10:58;4.50;;;3.50;;
24897;SDS011;12957;49.434;8.684;2024-03-17T05:13:31;3.70;;;3.40;;
24897;SDS011;12957;49.434;8.684;2024-03-17T05:15:56;3.50;;;3.20;;
24897;SDS011;12957;49.434;8.684;2024-03-17T05:18:22;4.45;;;3.30;;
24897;SDS011;12957;49.434;8.684;2024-03-17T05:21:01;3.20;;;2.93;;
24897;SDS011;12957;49.434;8.684;2024-03-17T05:23:27;4.13;;;3.60;;
24897;SDS011;12957;49.434;8.684;2024-03-17T05:25:53;8.40;;;3.33;;
24897;SDS011;12957;49.434;8.684;2024-03-17T05:28:19;4.60;;;2.60;;
24897;SDS011;12957;49.434;8.684;2024-03-17T05:30:45;4.87;;;2.50;;
24897;SDS011;12957;49.434;8.684;2024-03-17T05:33:10;4.90;;;2.33;;
24897;SDS011;12957;49.434;8.684;2024-03-17T05:35:36;9.20;;;2.60;;
24897;SDS011;12957;49.434;8.684;2024-03-17T05:38:01;6.30;;;3.00;;
24897;SDS011;12957;49.434;8.684;2024-03-17T05:40:27;3.42;;;2.70;;
24897;SDS011;12957;49.434;8.684;2024-03-17T05:42:52;4.40;;;2.92;;
24897;SDS011;12957;49.434;8.684;2024-03-17T05:45:18;4.10;;;2.90;;
24897;SDS011;12957;49.434;8.684;2024-03-17T05:47:43;3.00;;;2.72;;
24897;SDS011;12957;49.434;8.684;2024-03-17T05:50:09;8.02;;;3.00;;
24897;SDS011;12957;49.434;8.684;2024-03-17T05:52:34;3.60;;;2.80;;
24897;SDS011;12957;49.434;8.684;2024-03-17T05:55:00;5.18;;;2.58;;
24897;SDS011;12957;49.434;8.684;2024-03-17T05:57:25;5.65;;;2.80;;
24897;SDS011;12957;49.434;8.684;2024-03-17T05:59:51;2.63;;;2.40;;
24897;SDS011;12957;49.434;8.684;2024-03-17T06:02:16;4.28;;;2.78;;
24897;SDS011;12957;49.434;8.684;2024-03-17T06:04:43;2.72;;;2.40;;
24897;SDS011;12957;49.434;8.684;2024-03-17T06:07:09;2.80;;;2.60;;
24897;SDS011;12957;49.434;8.684;2024-03-17T06:09:35;4.95;;;2.88;;
24897;SDS011;12957;49.434;8.684;2024-03-17T06:12:00;3.38;;;2.80;;
24897;SDS011;12957;49.434;8.684;2024-03-17T06:14:26;4.43;;;2.70;;
24897;SDS011;12957;49.434;8.684;2024-03-17T06:16:51;4.32;;;2.38;;
24897;SDS011;12957;49.434;8.684;2024-03-17T06:19:17;6.78;;;2.55;;
24897;SDS011;12957;49.434;8.684;2024-03-17T06:21:42;3.67;;;2.55;;
24897;SDS011;12957;49.434;8.684;2024-03-17T06:24:08;4.55;;;2.28;;
24897;SDS011;12957;49.434;8.684;2024-03-17T06:26:33;2.75;;;2.50;;
24897;SDS011;12957;49.434;8.684;2024-03-17T06:29:02;2.78;;;2.33;;
24897;SDS011;12957;49.434;8.684;2024-03-17T06:31:28;4.28;;;2.17;;
24897;SDS011;12957;49.434;8.684;2024-03-17T06:33:53;4.75;;;2.60;;
24897;SDS011;12957;49.434;8.684;2024-03-17T06:36:19;6.43;;;2.60;;
24897;SDS011;12957;49.434;8.684;2024-03-17T06:38:44;3.35;;;2.40;;
24897;SDS011;12957;49.434;8.684;2024-03-17T06:41:10;8.07;;;2.72;;
24897;SDS011;12957;49.434;8.684;2024-03-17T06:43:35;4.95;;;2.50;;
24897;SDS011;12957;49.434;8.684;2024-03-17T06:46:01;2.70;;;2.35;;
24897;SDS011;12957;49.434;8.684;2024-03-17T06:48:27;2.20;;;2.08;;
24897;SDS011;12957;49.434;8.684;2024-03-17T06:50:53;2.40;;;2.17;;
24897;SDS011;12957;49.434;8.684;2024-03-17T06:53:20;1.80;;;1.70;;
24897;SDS011;12957;49.434;8.684;2024-03-17T06:55:55;1.90;;;1.75;;
24897;SDS011;12957;49.434;8.684;2024-03-17T06:58:21;3.55;;;2.17;;
24897;SDS011;12957;49.434;8.684;2024-03-17T07:03:24;3.33;;;1.90;;
24897;SDS011;12957;49.434;8.684;2024-03-17T07:05:51;2.95;;;2.10;;
24897;SDS011;12957;49.434;8.684;2024-03-17T07:08:19;1.75;;;1.65;;
24897;SDS011;12957;49.434;8.684;2024-03-17T07:10:58;2.33;;;2.13;;
24897;SDS011;12957;49.434;8.684;2024-03-17T07:13:24;2.80;;;1.88;;
24897;SDS011;12957;49.434;8.684;2024-03-17T07:15:50;2.53;;;2.10;;
24897;SDS011;12957;49.434;8.684;2024-03-17T07:18:15;1.90;;;1.80;;
24897;SDS011;12957;49.434;8.684;2024-03-17T07:20:41;2.47;;;2.28;;
24897;SDS011;12957;49.434;8.684;2024-03-17T07:23:07;2.45;;;2.25;;
24897;SDS011;12957;49.434;8.684;2024-03-17T07:25:32;3.10;;;2.50;;
24897;SDS011;12957;49.434;8.684;2024-03-17T07:27:58;3.78;;;2.42;;
24897;SDS011;12957;49.434;8.684;2024-03-17T07:30:23;4.00;;;2.40;;
24897;SDS011;12957;49.434;8.684;2024-03-17T07:32:48;3.15;;;2.40;;
24897;SDS011;12957;49.434;8.684;2024-03-17T07:35:14;2.42;;;2.22;;
24897;SDS011;12957;49.434;8.684;2024-03-17T07:37:39;3.60;;;2.60;;
24897;SDS011;12957;49.434;8.684;2024-03-17T07:40:05;2.20;;;2.10;;
24897;SDS011;12957;49.434;8.684;2024-03-17T07:42:36;4.72;;;2.30;;
24897;SDS011;12957;49.434;8.684;2024-03-17T07:45:01;2.75;;;2.35;;
24897;SDS011;12957;49.434;8.684;2024-03-17T07:47:27;2.53;;;2.33;;
24897;SDS011;12957;49.434;8.684;2024-03-17T07:50:00;2.80;;;2.20;;
24897;SDS011;12957;49.434;8.684;2024-03-17T07:52:31;2.83;;;2.30;;
24897;SDS011;12957;49.434;8.684;2024-03-17T07:54:57;2.30;;;2.10;;
24897;SDS011;12957;49.434;8.684;2024-03-17T07:57:23;2.38;;;2.13;;
24897;SDS011;12957;49.434;8.684;2024-03-17T07:59:51;5.65;;;2.60;;
24897;SDS011;12957;49.434;8.684;2024-03-17T08:02:17;4.38;;;2.38;;
24897;SDS011;12957;49.434;8.684;2024-03-17T08:04:42;3.35;;;2.22;;
24897;SDS011;12957;49.434;8.684;2024-03-17T08:07:09;3.13;;;2.50;;
24897;SDS011;12957;49.434;8.684;2024-03-17T08:09:35;3.65;;;2.40;;
24897;SDS011;12957;49.434;8.684;2024-03-17T08:12:01;3.38;;;2.20;;
24897;SDS011;12957;49.434;8.684;2024-03-17T08:14:29;5.07;;;1.95;;
24897;SDS011;12957;49.434;8.684;2024-03-17T08:16:55;3.65;;;2.38;;
24897;SDS011;12957;49.434;8.684;2024-03-17T08:19:20;3.72;;;2.22;;
24897;SDS011;12957;49.434;8.684;2024-03-17T08:21:46;6.35;;;2.22;;
24897;SDS011;12957;49.434;8.684;2024-03-17T08:24:11;2.67;;;2.30;;
24897;SDS011;12957;49.434;8.684;2024-03-17T08:26:38;5.18;;;3.00;;
24897;SDS011;12957;49.434;8.684;2024-03-17T08:29:05;8.52;;;3.38;;
24897;SDS011;12957;49.434;8.684;2024-03-17T08:31:31;5.97;;;2.80;;
24897;SDS011;12957;49.434;8.684;2024-03-17T08:33:57;2.97;;;2.70;;
24897;SDS011;12957;49.434;8.684;2024-03-17T08:36:22;7.45;;;2.90;;
24897;SDS011;12957;49.434;8.684;2024-03-17T08:38:48;6.60;;;2.78;;
24897;SDS011;12957;49.434;8.684;2024-03-17T08:41:13;3.03;;;2.72;;
24897;SDS011;12957;49.434;8.684;2024-03-17T08:43:39;2.95;;;2.45;;
24897;SDS011;12957;49.434;8.684;2024-03-17T08:46:10;2.45;;;2.20;;
24897;SDS011;12957;49.434;8.684;2024-03-17T08:48:37;4.70;;;2.70;;
24897;SDS011;12957;49.434;8.684;2024-03-17T08:51:04;4.00;;;3.25;;
24897;SDS011;12957;49.434;8.684;2024-03-17T08:53:30;3.88;;;3.53;;
24897;SDS011;12957;49.434;8.684;2024-03-17T08:55:56;6.75;;;3.78;;
24897;SDS011;12957;49.434;8.684;2024-03-17T08:58:22;6.82;;;3.45;;
24897;SDS011;12957;49.434;8.684;2024-03-17T09:00:48;3.13;;;2.85;;
24897;SDS011;12957;49.434;8.684;2024-03-17T09:03:14;6.25;;;3.35;;
24897;SDS011;12957;49.434;8.684;2024-03-17T09:05:40;6.93;;;3.38;;
24897;SDS011;12957;49.434;8.684;2024-03-17T09:08:06;5.03;;;4.00;;
24897;SDS011;12957;49.434;8.684;2024-03-17T09:10:41;5.00;;;3.47;;
24897;SDS011;12957;49.434;8.684;2024-03-17T09:13:07;4.22;;;3.47;;
24897;SDS011;12957;49.434;8.684;2024-03-17T09:15:37;4.43;;;3.67;;
24897;SDS011;12957;49.434;8.684;2024-03-17T09:18:03;5.68;;;3.60;;
24897;SDS011;12957;49.434;8.684;2024-03-17T09:20:28;4.70;;;3.72;;
24897;SDS011;12957;49.434;8.684;2024-03-17T09:22:54;3.90;;;3.42;;
24897;SDS011;12957;49.434;8.684;2024-03-17T09:25:20;3.92;;;3.50;;
24897;SDS011;12957;49.434;8.684;2024-03-17T09:27:46;7.45;;;3.60;;
24897;SDS011;12957;49.434;8.684;2024-03-17T09:30:11;5.07;;;3.42;;
24897;SDS011;12957;49.434;8.684;2024-03-17T09:32:37;4.53;;;3.75;;
24897;SDS011;12957;49.434;8.684;2024-03-17T09:35:03;7.97;;;3.63;;
24897;SDS011;12957;49.434;8.684;2024-03-17T09:37:29;5.80;;;3.78;;
24897;SDS011;12957;49.434;8.684;2024-03-17T09:39:56;5.45;;;4.05;;
24897;SDS011;12957;49.434;8.684;2024-03-17T09:42:23;8.07;;;3.63;;
24897;SDS011;12957;49.434;8.684;2024-03-17T09:44:49;5.65;;;4.32;;
24897;SDS011;12957;49.434;8.684;2024-03-17T09:47:19;5.03;;;4.28;;
24897;SDS011;12957;49.434;8.684;2024-03-17T09:49:48;3.83;;;3.42;;
24897;SDS011;12957;49.434;8.684;2024-03-17T09:52:24;6.35;;;4.18;;
24897;SDS011;12957;49.434;8.684;2024-03-17T09:55:06;7.07;;;4.47;;
24897;SDS011;12957;49.434;8.684;2024-03-17T09:57:35;5.90;;;4.32;;
24897;SDS011;12957;49.434;8.684;2024-03-17T10:00:04;10.85;;;5.57;;
24897;SDS011;12957;49.434;8.684;2024-03-17T10:02:30;9.82;;;5.15;;
24897;SDS011;12957;49.434;8.684;2024-03-17T10:04:55;5.05;;;4.53;;
24897;SDS011;12957;49.434;8.684;2024-03-17T10:07:33;11.07;;;5.13;;
24897;SDS011;12957;49.434;8.684;2024-03-17T10:10:12;6.95;;;5.10;;
24897;SDS011;12957;49.434;8.684;2024-03-17T10:12:38;6.38;;;4.88;;
24897;SDS011;12957;49.434;8.684;2024-03-17T10:15:03;7.32;;;4.40;;
24897;SDS011;12957;49.434;8.684;2024-03-17T10:17:33;6.68;;;4.65;;
24897;SDS011;12957;49.434;8.684;2024-03-17T10:20:16;5.43;;;4.35;;
24897;SDS011;12957;49.434;8.684;2024-03-17T10:25:26;4.95;;;4.25;;
24897;SDS011;12957;49.434;8.684;2024-03-17T10:27:52;10.15;;;4.07;;
24897;SDS011;12957;49.434;8.684;2024-03-17T10:30:19;12.43;;;4.70;;
24897;SDS011;12957;49.434;8.684;2024-03-17T10:32:59;4.78;;;3.78;;
24897;SDS011;12957;49.434;8.684;2024-03-17T10:35:33;8.80;;;3.65;;
24897;SDS011;12957;49.434;8.684;2024-03-17T10:38:00;4.80;;;4.30;;
24897;SDS011;12957;49.434;8.684;2024-03-17T10:40:27;7.72;;;4.93;;
24897;SDS011;12957;49.434;8.684;2024-03-17T10:42:54;8.70;;;4.50;;
24897;SDS011;12957;49.434;8.684;2024-03-17T10:45:20;6.53;;;4.57;;
24897;SDS011;12957;49.434;8.684;2024-03-17T10:47:47;7.00;;;4.53;;
24897;SDS011;12957;49.434;8.684;2024-03-17T10:50:23;6.50;;;4.00;;
24897;SDS011;12957;49.434;8.684;2024-03-17T10:52:49;7.97;;;4.07;;
24897;SDS011;12957;49.434;8.684;2024-03-17T10:55:22;4.55;;;3.50;;
24897;SDS011;12957;49.434;8.684;2024-03-17T10:57:50;5.88;;;3.95;;
24897;SDS011;12957;49.434;8.684;2024-03-17T11:00:16;6.90;;;4.60;;
24897;SDS011;12957;49.434;8.684;2024-03-17T11:02:44;7.93;;;3.55;;
24897;SDS011;12957;49.434;8.684;2024-03-17T11:07:40;5.55;;;4.20;;
24897;SDS011;12957;49.434;8.684;2024-03-17T11:10:14;3.28;;;3.03;;
24897;SDS011;12957;49.434;8.684;2024-03-17T11:12:57;7.65;;;4.03;;
24897;SDS011;12957;49.434;8.684;2024-03-17T11:17:55;4.18;;;3.75;;
24897;SDS011;12957;49.434;8.684;2024-03-17T11:23:32;5.25;;;4.15;;
24897;SDS011;12957;49.434;8.684;2024-03-17T11:25:58;5.72;;;4.32;;
24897;SDS011;12957;49.434;8.684;2024-03-17T11:34:02;4.88;;;4.40;;
24897;SDS011;12957;49.434;8.684;2024-03-17T11:36:30;4.40;;;3.92;;
24897;SDS011;12957;49.434;8.684;2024-03-17T11:38:59;6.25;;;4.80;;
24897;SDS011;12957;49.434;8.684;2024-03-17T11:44:15;8.85;;;4.10;;
24897;SDS011;12957;49.434;8.684;2024-03-17T11:46:50;6.25;;;4.10;;
24897;SDS011;12957;49.434;8.684;2024-03-17T11:49:21;4.90;;;4.10;;
24897;SDS011;12957;49.434;8.684;2024-03-17T11:51:47;6.05;;;4.25;;
24897;SDS011;12957;49.434;8.684;2024-03-17T11:54:14;5.80;;;4.07;;
24897;SDS011;12957;49.434;8.684;2024-03-17T11:56:43;6.35;;;4.07;;
24897;SDS011;12957;49.434;8.684;2024-03-17T11:59:18;5.78;;;4.10;;
24897;SDS011;12957;49.434;8.684;2024-03-17T12:01:53;5.03;;;3.63;;
24897;SDS011;12957;49.434;8.684;2024-03-17T12:04:20;7.07;;;4.28;;
24897;SDS011;12957;49.434;8.684;2024-03-17T12:09:22;4.70;;;3.90;;
24897;SDS011;12957;49.434;8.684;2024-03-17T12:12:01;4.57;;;4.18;;
24897;SDS011;12957;49.434;8.684;2024-03-17T12:14:29;4.88;;;4.15;;
24897;SDS011;12957;49.434;8.684;2024-03-17T12:16:55;5.38;;;3.75;;
24897;SDS011;12957;49.434;8.684;2024-03-17T12:19:22;5.68;;;3.50;;
24897;SDS011;12957;49.434;8.684;2024-03-17T12:21:49;4.38;;;3.58;;
24897;SDS011;12957;49.434;8.684;2024-03-17T12:24:16;6.53;;;4.05;;
24897;SDS011;12957;49.434;8.684;2024-03-17T12:26:44;4.13;;;3.83;;
24897;SDS011;12957;49.434;8.684;2024-03-17T12:29:22;3.83;;;2.92;;
24897;SDS011;12957;49.434;8.684;2024-03-17T12:31:59;6.13;;;3.85;;
24897;SDS011;12957;49.434;8.684;2024-03-17T12:34:27;3.67;;;3.15;;
24897;SDS011;12957;49.434;8.684;2024-03-17T12:36:53;6.35;;;3.92;;
24897;SDS011;12957;49.434;8.684;2024-03-17T12:42:00;4.95;;;3.58;;
24897;SDS011;12957;49.434;8.684;2024-03-17T12:44:35;4.22;;;3.40;;
24897;SDS011;12957;49.434;8.684;2024-03-17T12:47:07;5.03;;;4.13;;
24897;SDS011;12957;49.434;8.684;2024-03-17T12:49:33;5.90;;;3.70;;
24897;SDS011;12957;49.434;8.684;2024-03-17T12:51:59;6.72;;;3.55;;
24897;SDS011;12957;49.434;8.684;2024-03-17T12:54:26;6.10;;;3.67;;
24897;SDS011;12957;49.434;8.684;2024-03-17T12:57:02;7.93;;;2.90;;
24897;SDS011;12957;49.434;8.684;2024-03-17T12:59:47;3.45;;;3.15;;
24897;SDS011;12957;49.434;8.684;2024-03-17T13:02:31;4.45;;;3.17;;
24897;SDS011;12957;49.434;8.684;2024-03-17T13:07:31;3.40;;;2.60;;
24897;SDS011;12957;49.434;8.684;2024-03-17T13:09:56;4.00;;;3.22;;
24897;SDS011;12957;49.434;8.684;2024-03-17T13:12:22;3.13;;;2.83;;
24897;SDS011;12957;49.434;8.684;2024-03-17T13:14:47;4.85;;;3.08;;
24897;SDS011;12957;49.434;8.684;2024-03-17T13:17:14;4.18;;;2.95;;
24897;SDS011;12957;49.434;8.684;2024-03-17T13:19:47;4.78;;;3.03;;
24897;SDS011;12957;49.434;8.684;2024-03-17T13:22:12;2.65;;;2.42;;
24897;SDS011;12957;49.434;8.684;2024-03-17T13:24:38;2.75;;;2.53;;
24897;SDS011;12957;49.434;8.684;2024-03-17T13:27:04;2.70;;;2.50;;
24897;SDS011;12957;49.434;8.684;2024-03-17T13:29:31;3.70;;;2.35;;
24897;SDS011;12957;49.434;8.684;2024-03-17T13:32:03;3.33;;;3.00;;
24897;SDS011;12957;49.434;8.684;2024-03-17T13:34:29;3.33;;;3.08;;
24897;SDS011;12957;49.434;8.684;2024-03-17T13:36:55;5.13;;;3.10;;
24897;SDS011;12957;49.434;8.684;2024-03-17T13:39:20;3.78;;;3.28;;
24897;SDS011;12957;49.434;8.684;2024-03-17T13:41:47;3.42;;;3.00;;
24897;SDS011;12957;49.434;8.684;2024-03-17T13:44:14;5.13;;;3.40;;
24897;SDS011;12957;49.434;8.684;2024-03-17T13:46:40;5.22;;;3.17;;
24897;SDS011;12957;49.434;8.684;2024-03-17T13:49:09;4.40;;;3.53;;
24897;SDS011;12957;49.434;8.684;2024-03-17T13:51:34;3.20;;;3.00;;
24897;SDS011;12957;49.434;8.684;2024-03-17T13:54:00;3.58;;;3.28;;
24897;SDS011;12957;49.434;8.684;2024-03-17T13:56:26;3.65;;;3.15;;
24897;SDS011;12957;49.434;8.684;2024-03-17T13:58:51;3.40;;;3.10;;
24897;SDS011;12957;49.434;8.684;2024-03-17T14:01:17;3.17;;;2.78;;
24897;SDS011;12957;49.434;8.684;2024-03-17T14:03:43;4.05;;;2.83;;
24897;SDS011;12957;49.434;8.684;2024-03-17T14:06:08;3.53;;;3.22;;
24897;SDS011;12957;49.434;8.684;2024-03-17T14:08:34;3.75;;;3.47;;
24897;SDS011;12957;49.434;8.684;2024-03-17T14:11:00;4.63;;;3.47;;
24897;SDS011;12957;49.434;8.684;2024-03-17T14:13:26;4.28;;;3.38;;
24897;SDS011;12957;49.434;8.684;2024-03-17T14:15:55;3.38;;;2.78;;
24897;SDS011;12957;49.434;8.684;2024-03-17T14:18:21;3.97;;;3.15;;
24897;SDS011;12957;49.434;8.684;2024-03-17T14:20:47;3.30;;;3.10;;
24897;SDS011;12957;49.434;8.684;2024-03-17T14:23:12;2.60;;;2.40;;
24897;SDS011;12957;49.434;8.684;2024-03-17T14:25:38;3.13;;;2.83;;
24897;SDS011;12957;49.434;8.684;2024-03-17T14:28:04;5.03;;;3.13;;
24897;SDS011;12957;49.434;8.684;2024-03-17T14:30:30;4.20;;;3.25;;
24897;SDS011;12957;49.434;8.684;2024-03-17T14:32:58;5.40;;;3.20;;
24897;SDS011;12957;49.434;8.684;2024-03-17T14:35:23;2.97;;;2.78;;
24897;SDS011;12957;49.434;8.684;2024-03-17T14:37:49;6.88;;;3.40;;
24897;SDS011;12957;49.434;8.684;2024-03-17T14:40:16;2.65;;;2.45;;
24897;SDS011;12957;49.434;8.684;2024-03-17T14:42:49;4.10;;;2.95;;
24897;SDS011;12957;49.434;8.684;2024-03-17T14:45:16;3.15;;;2.88;;
24897;SDS011;12957;49.434;8.684;2024-03-17T14:47:44;3.33;;;3.00;;
24897;SDS011;12957;49.434;8.684;2024-03-17T14:50:13;3.40;;;3.10;;
24897;SDS011;12957;49.434;8.684;2024-03-17T14:52:39;4.25;;;2.50;;
24897;SDS011;12957;49.434;8.684;2024-03-17T14:55:06;3.00;;;2.63;;
24897;SDS011;12957;49.434;8.684;2024-03-17T14:57:34;3.47;;;3.17;;
24897;SDS011;12957;49.434;8.684;2024-03-17T15:00:02;4.82;;;2.97;;
24897;SDS011;12957;49.434;8.684;2024-03-17T15:02:28;2.55;;;2.38;;
24897;SDS011;12957;49.434;8.684;2024-03-17T15:04:54;3.03;;;2.65;;
24897;SDS011;12957;49.434;8.684;2024-03-17T15:07:19;2.83;;;2.50;;
24897;SDS011;12957;49.434;8.684;2024-03-17T15:09:45;3.25;;;2.70;;
24897;SDS011;12957;49.434;8.684;2024-03-17T15:12:12;4.70;;;3.30;;
24897;SDS011;12957;49.434;8.684;2024-03-17T15:14:37;4.28;;;2.90;;
24897;SDS011;12957;49.434;8.684;2024-03-17T15:17:03;4.30;;;3.00;;